LDSP/SPU METAR and TAF weather

Enter ICAO airport designator
Station Type Date Time Source
LDSP METAR 2024/06/15 22:00 UTC NOAA

LDSP 152200Z 31003KT 280V350 CAVOK 20/11 Q1012 NOSIG


Station Type Date Time Source
LDSP Decoded METAR 2024/06/15 22:00 UTC NOAA

Split / Resnik, Croatia (LDSP) 43-32N 016-18E 21M
Jun 15, 2024 - 06:00 PM EDT / 2024.06.15 2200 UTC
Wind: from the NW (310 degrees) at 3 MPH (3 KT) (direction variable):0
Visibility: greater than 7 mile(s):0
Temperature: 68 F (20 C)
Dew Point: 51 F (11 C)
Relative Humidity: 56%
Pressure (altimeter): 29.88 in. Hg (1012 hPa)
ob: LDSP 152200Z 31003KT 280V350 CAVOK 20/11 Q1012 NOSIG
cycle: 22

Station Type Date Time Source
LDSP TAF 2024/06/15 18:27 UTC NOAA